createdAt,value
2022-09-26T00:01:20.415Z,58.97
2022-09-26T00:03:49.908Z,59.17
2022-09-26T00:06:18.334Z,59.26
2022-09-26T00:08:46.843Z,59.30
2022-09-26T00:11:17.465Z,59.26
2022-09-26T00:13:45.196Z,59.45
2022-09-26T00:16:13.460Z,59.58
2022-09-26T00:18:40.577Z,59.47
2022-09-26T00:21:11.095Z,59.51
2022-09-26T00:23:38.337Z,59.53
2022-09-26T00:26:06.178Z,59.56
2022-09-26T00:28:33.065Z,59.51
2022-09-26T00:31:05.485Z,59.57
2022-09-26T00:33:32.831Z,59.64
2022-09-26T00:35:59.754Z,59.62
2022-09-26T00:38:26.778Z,59.74
2022-09-26T00:40:54.073Z,59.99
2022-09-26T00:43:35.913Z,59.68
2022-09-26T00:46:40.101Z,59.67
2022-09-26T00:49:25.774Z,59.75
2022-09-26T00:51:58.011Z,59.74
2022-09-26T00:54:28.061Z,59.65
2022-09-26T00:56:59.009Z,59.89
2022-09-26T00:59:30.647Z,59.96
2022-09-26T01:01:59.656Z,59.81
2022-09-26T01:04:29.246Z,59.88
2022-09-26T01:06:58.398Z,59.92
2022-09-26T01:09:27.637Z,59.90
2022-09-26T01:11:55.660Z,59.94
2022-09-26T01:14:22.738Z,59.89
2022-09-26T01:16:54.222Z,59.95
2022-09-26T01:19:35.640Z,59.93
2022-09-26T01:22:17.646Z,60.06
2022-09-26T01:25:18.784Z,60.12
2022-09-26T01:28:07.318Z,60.13
2022-09-26T01:31:13.370Z,60.20
2022-09-26T01:33:46.402Z,60.03
2022-09-26T01:36:23.763Z,60.18
2022-09-26T01:39:11.892Z,60.23
2022-09-26T01:41:58.531Z,60.34
2022-09-26T01:44:40.112Z,60.24
2022-09-26T01:47:15.737Z,60.33
2022-09-26T01:49:54.250Z,60.22
2022-09-26T01:52:28.872Z,60.28
2022-09-26T01:55:14.692Z,60.57
2022-09-26T01:57:53.191Z,60.46
2022-09-26T02:00:21.041Z,60.48
2022-09-26T02:02:49.995Z,60.36
2022-09-26T02:05:25.407Z,60.56
2022-09-26T02:08:04.529Z,60.56
2022-09-26T02:10:36.769Z,60.27
2022-09-26T02:13:11.741Z,60.51
2022-09-26T02:15:40.721Z,60.47
2022-09-26T02:18:20.519Z,60.69
2022-09-26T02:20:55.989Z,60.87
2022-09-26T02:23:22.802Z,60.83
2022-09-26T02:25:49.715Z,60.86
2022-09-26T02:28:16.602Z,60.95
2022-09-26T02:30:46.419Z,60.94
2022-09-26T02:33:13.771Z,60.83
2022-09-26T02:35:55.947Z,60.89
2022-09-26T02:38:25.198Z,60.79
2022-09-26T02:41:18.156Z,60.79
2022-09-26T02:44:00.953Z,60.81
2022-09-26T02:46:38.647Z,60.98
2022-09-26T02:49:22.288Z,60.77
2022-09-26T02:52:08.333Z,60.74
2022-09-26T02:55:01.820Z,60.89
2022-09-26T02:57:46.260Z,60.90
2022-09-26T03:00:21.354Z,60.78
2022-09-26T03:03:04.447Z,60.87
2022-09-26T03:05:35.284Z,60.92
2022-09-26T03:08:12.741Z,60.89
2022-09-26T03:10:41.050Z,61.07
2022-09-26T03:13:13.536Z,60.93
2022-09-26T03:15:45.421Z,61.03
2022-09-26T03:18:17.159Z,61.08
2022-09-26T03:20:44.866Z,60.95
2022-09-26T03:23:11.661Z,60.89
2022-09-26T03:25:39.716Z,60.89
2022-09-26T03:28:06.612Z,60.80
2022-09-26T03:30:33.922Z,61.03
2022-09-26T03:33:03.380Z,60.82
2022-09-26T03:35:30.500Z,60.99
2022-09-26T03:37:57.303Z,60.94
2022-09-26T03:40:24.143Z,60.90
2022-09-26T03:42:51.059Z,60.95
2022-09-26T03:45:17.981Z,60.91
2022-09-26T03:47:44.786Z,60.78
2022-09-26T03:50:11.811Z,60.79
2022-09-26T03:52:38.610Z,60.80
2022-09-26T03:55:05.775Z,60.82
2022-09-26T03:57:32.874Z,60.72
2022-09-26T03:59:59.689Z,60.73
2022-09-26T04:02:26.615Z,60.80
2022-09-26T04:04:53.423Z,60.75
2022-09-26T04:07:20.235Z,60.88
2022-09-26T04:09:47.074Z,60.86
2022-09-26T04:12:13.878Z,60.79
2022-09-26T04:14:40.820Z,60.94
2022-09-26T04:17:08.108Z,60.88
2022-09-26T04:19:34.950Z,60.97
2022-09-26T04:22:01.800Z,60.88
2022-09-26T04:24:28.600Z,60.93
2022-09-26T04:26:55.563Z,60.96
2022-09-26T04:29:22.786Z,61.08
2022-09-26T04:31:51.552Z,61.15
2022-09-26T04:34:21.304Z,61.14
2022-09-26T04:36:51.916Z,61.20
2022-09-26T04:39:19.163Z,61.22
2022-09-26T04:41:45.955Z,61.22
2022-09-26T04:44:13.111Z,61.36
2022-09-26T04:46:39.933Z,61.30
2022-09-26T04:49:06.874Z,61.27
2022-09-26T04:51:33.785Z,61.44
2022-09-26T04:54:00.685Z,61.30
2022-09-26T04:56:29.738Z,61.54
2022-09-26T04:58:58.252Z,61.44
2022-09-26T05:01:25.963Z,61.37
2022-09-26T05:03:55.977Z,61.83
2022-09-26T05:06:22.883Z,61.75
2022-09-26T05:08:49.876Z,61.78
2022-09-26T05:11:18.086Z,61.88
2022-09-26T05:13:45.351Z,62.20
2022-09-26T05:16:14.672Z,62.45
2022-09-26T05:18:42.274Z,62.48
2022-09-26T05:21:09.261Z,62.55
2022-09-26T05:23:55.510Z,62.59
2022-09-26T05:26:32.340Z,62.74
2022-09-26T05:29:08.398Z,62.73
2022-09-26T05:31:38.174Z,62.68
2022-09-26T05:34:14.355Z,62.72
2022-09-26T05:36:45.553Z,62.54
2022-09-26T05:39:30.743Z,62.62
2022-09-26T05:41:59.563Z,62.79
2022-09-26T05:44:26.897Z,62.69
2022-09-26T05:46:53.813Z,62.43
2022-09-26T05:49:20.746Z,62.11
2022-09-26T05:51:47.697Z,62.24
2022-09-26T05:54:14.646Z,62.03
2022-09-26T05:56:41.577Z,61.97
2022-09-26T05:59:08.707Z,61.84
2022-09-26T06:01:36.266Z,61.80
2022-09-26T06:04:03.434Z,61.60
2022-09-26T06:06:30.611Z,61.74
2022-09-26T06:08:57.590Z,61.84
2022-09-26T06:11:33.689Z,61.84
2022-09-26T06:14:01.127Z,62.32
2022-09-26T06:16:28.993Z,62.30
2022-09-26T06:18:56.102Z,62.22
2022-09-26T06:21:24.086Z,61.91
2022-09-26T06:23:50.986Z,61.90
2022-09-26T06:26:26.155Z,61.90
2022-09-26T06:29:07.831Z,61.38
2022-09-26T06:31:34.969Z,60.54
2022-09-26T06:34:02.049Z,60.28
2022-09-26T06:36:28.889Z,59.94
2022-09-26T06:38:57.000Z,60.21
2022-09-26T06:41:26.706Z,60.33
2022-09-26T06:43:53.918Z,60.43
2022-09-26T06:46:21.930Z,60.74
2022-09-26T06:48:49.172Z,60.66
2022-09-26T06:51:16.108Z,60.85
2022-09-26T06:53:46.158Z,60.94
2022-09-26T06:56:13.761Z,61.02
2022-09-26T06:58:40.690Z,61.09
2022-09-26T07:01:08.041Z,61.27
2022-09-26T07:03:35.174Z,61.21
2022-09-26T07:06:02.185Z,61.29
2022-09-26T07:08:57.467Z,61.40
2022-09-26T07:11:35.002Z,61.46
2022-09-26T07:14:03.544Z,61.80
2022-09-26T07:16:31.152Z,61.75
2022-09-26T07:18:58.223Z,61.84
2022-09-26T07:21:25.217Z,61.82
2022-09-26T07:23:56.935Z,61.78
2022-09-26T07:26:23.879Z,61.81
2022-09-26T07:28:54.439Z,61.95
2022-09-26T07:31:23.981Z,62.10
2022-09-26T07:33:51.313Z,61.77
2022-09-26T07:36:18.789Z,62.02
2022-09-26T07:38:49.008Z,62.03
2022-09-26T07:41:16.755Z,62.02
2022-09-26T07:46:49.834Z,62.21
2022-09-26T07:49:35.585Z,62.01
2022-09-26T07:52:03.390Z,62.08
2022-09-26T07:54:30.320Z,62.08
2022-09-26T07:56:57.475Z,61.95
2022-09-26T07:59:24.516Z,61.99
2022-09-26T08:01:53.122Z,62.04
2022-09-26T08:04:20.210Z,61.90
2022-09-26T08:06:47.368Z,61.84
2022-09-26T08:09:14.454Z,61.97
2022-09-26T08:11:42.457Z,61.96
2022-09-26T08:14:09.652Z,61.96
2022-09-26T08:16:40.003Z,61.90
2022-09-26T08:19:08.675Z,61.85
2022-09-26T08:21:35.973Z,61.80
2022-09-26T08:24:03.040Z,61.84
2022-09-26T08:26:30.042Z,61.79
2022-09-26T08:28:59.279Z,61.81
2022-09-26T08:31:26.584Z,61.80
2022-09-26T08:33:54.400Z,62.00
2022-09-26T08:36:21.842Z,61.91
2022-09-26T08:38:50.651Z,62.00
2022-09-26T08:41:32.699Z,61.95
2022-09-26T08:44:22.871Z,62.15
2022-09-26T08:47:39.130Z,62.03
2022-09-26T08:50:36.775Z,62.13
2022-09-26T08:53:16.763Z,62.00
2022-09-26T08:55:46.951Z,62.09
2022-09-26T08:58:29.095Z,62.27
2022-09-26T09:01:03.213Z,62.02
2022-09-26T09:03:52.230Z,61.95
2022-09-26T09:06:19.846Z,61.98
2022-09-26T09:08:51.730Z,62.05
2022-09-26T09:11:33.898Z,62.06
2022-09-26T09:14:10.035Z,62.11
2022-09-26T09:17:00.177Z,62.00
2022-09-26T09:19:32.480Z,62.17
2022-09-26T09:22:27.156Z,62.03
2022-09-26T09:25:13.577Z,61.77
2022-09-26T09:28:12.835Z,61.89
2022-09-26T09:30:40.019Z,61.78
2022-09-26T09:33:21.561Z,61.65
2022-09-26T09:35:54.126Z,61.51
2022-09-26T09:38:27.210Z,61.45
2022-09-26T09:41:03.252Z,61.30
2022-09-26T09:43:56.659Z,61.40
2022-09-26T09:46:29.080Z,61.01
2022-09-26T09:49:18.154Z,61.18
2022-09-26T09:52:14.198Z,61.13
2022-09-26T09:55:16.668Z,61.07
2022-09-26T09:57:52.474Z,61.09
2022-09-26T10:00:24.807Z,60.92
2022-09-26T10:03:19.541Z,61.09
2022-09-26T10:05:50.977Z,60.95
2022-09-26T10:08:27.692Z,60.87
2022-09-26T10:11:13.403Z,60.90
2022-09-26T10:13:43.270Z,60.84
2022-09-26T10:16:14.757Z,60.86
2022-09-26T10:19:04.499Z,60.63
2022-09-26T10:21:35.823Z,60.87
2022-09-26T10:24:06.856Z,60.92
2022-09-26T10:26:36.990Z,60.79
2022-09-26T10:29:25.203Z,60.74
2022-09-26T10:31:56.613Z,60.93
2022-09-26T10:34:31.331Z,60.84
2022-09-26T10:37:20.937Z,60.74
2022-09-26T10:40:17.300Z,60.68
2022-09-26T10:42:47.411Z,60.71
2022-09-26T10:45:27.458Z,60.72
2022-09-26T10:47:57.258Z,60.81
2022-09-26T10:50:28.793Z,60.93
2022-09-26T10:53:10.136Z,60.74
2022-09-26T10:55:44.301Z,60.87
2022-09-26T10:58:18.583Z,60.73
2022-09-26T11:00:52.628Z,60.58
2022-09-26T11:03:33.590Z,60.63
2022-09-26T11:06:00.826Z,60.30
2022-09-26T11:08:30.428Z,60.16
2022-09-26T11:11:11.531Z,60.26
2022-09-26T11:13:46.716Z,60.22
2022-09-26T11:16:17.808Z,60.04
2022-09-26T11:18:50.728Z,60.23
2022-09-26T11:22:14.936Z,60.36
2022-09-26T11:25:09.635Z,60.44
2022-09-26T11:27:45.425Z,60.21
2022-09-26T11:30:17.888Z,60.42
2022-09-26T11:32:52.255Z,60.39
2022-09-26T11:35:31.201Z,60.04
2022-09-26T11:38:24.318Z,59.91
2022-09-26T11:41:16.876Z,60.06
2022-09-26T11:43:59.171Z,60.04
2022-09-26T11:46:34.767Z,60.09
2022-09-26T11:49:35.732Z,59.99
2022-09-26T11:52:30.053Z,59.94
2022-09-26T11:55:18.241Z,59.85
2022-09-26T11:58:03.624Z,59.67
2022-09-26T12:00:49.082Z,59.67
2022-09-26T12:03:41.453Z,59.38
2022-09-26T12:06:19.303Z,59.45
2022-09-26T12:08:58.105Z,59.33
2022-09-26T12:11:53.553Z,59.56
2022-09-26T12:14:45.979Z,59.41
2022-09-26T12:17:35.599Z,59.56
2022-09-26T12:20:17.867Z,59.53
2022-09-26T12:22:53.668Z,59.53
2022-09-26T12:25:26.809Z,59.33
2022-09-26T12:28:38.395Z,58.88
2022-09-26T12:31:43.590Z,58.84
2022-09-26T12:34:16.623Z,58.61
2022-09-26T12:37:14.745Z,58.40
2022-09-26T12:40:01.090Z,58.41
2022-09-26T12:42:37.023Z,58.10
2022-09-26T12:45:06.989Z,58.42
2022-09-26T12:48:06.574Z,58.39
2022-09-26T12:50:44.649Z,58.37
2022-09-26T12:53:20.713Z,58.32
2022-09-26T12:56:11.442Z,58.14
2022-09-26T12:58:47.187Z,58.15
2022-09-26T13:01:41.732Z,58.12
2022-09-26T13:04:34.795Z,57.72
2022-09-26T13:07:28.091Z,57.86
2022-09-26T13:10:07.529Z,58.02
2022-09-26T13:12:52.568Z,58.12
2022-09-26T13:15:35.984Z,58.03
2022-09-26T13:18:12.903Z,58.22
2022-09-26T13:20:45.296Z,58.42
2022-09-26T13:23:35.233Z,58.26
2022-09-26T13:26:26.351Z,58.41
2022-09-26T13:29:23.700Z,58.39
2022-09-26T13:32:15.956Z,58.30
2022-09-26T13:34:52.107Z,58.24
2022-09-26T13:37:35.218Z,58.12
2022-09-26T13:40:21.563Z,58.23
2022-09-26T13:43:04.324Z,58.13
2022-09-26T13:45:59.339Z,57.88
2022-09-26T13:48:50.523Z,57.85
2022-09-26T13:51:30.993Z,57.92
2022-09-26T13:54:13.505Z,57.97
2022-09-26T13:56:48.631Z,57.94
2022-09-26T13:59:16.021Z,58.22
2022-09-26T14:02:16.899Z,58.28
2022-09-26T14:04:46.077Z,58.30
2022-09-26T14:07:32.196Z,58.49
2022-09-26T14:10:05.527Z,58.33
2022-09-26T14:12:52.990Z,58.10
2022-09-26T14:15:27.354Z,58.19
2022-09-26T14:18:07.516Z,58.25
2022-09-26T14:20:52.870Z,58.21
2022-09-26T14:23:40.391Z,58.19
2022-09-26T14:26:41.118Z,58.01
2022-09-26T14:29:29.746Z,58.22
2022-09-26T14:32:16.698Z,57.95
2022-09-26T14:34:54.015Z,57.92
2022-09-26T14:37:26.806Z,57.84
2022-09-26T14:40:00.202Z,57.76
2022-09-26T14:42:37.399Z,57.73
2022-09-26T14:45:20.376Z,57.77
2022-09-26T14:48:01.396Z,57.75
2022-09-26T14:50:34.691Z,57.70
2022-09-26T14:53:31.914Z,57.58
2022-09-26T14:56:03.351Z,57.31
2022-09-26T14:58:37.537Z,57.29
2022-09-26T15:01:37.827Z,57.31
2022-09-26T15:04:19.586Z,57.47
2022-09-26T15:06:54.702Z,57.42
2022-09-26T15:09:31.593Z,57.50
2022-09-26T15:12:02.804Z,57.61
2022-09-26T15:14:40.713Z,57.82
2022-09-26T15:17:19.017Z,57.92
2022-09-26T15:19:52.496Z,57.98
2022-09-26T15:22:24.185Z,57.97
2022-09-26T15:24:55.889Z,58.22
2022-09-26T15:27:29.611Z,57.74
2022-09-26T15:30:07.102Z,58.20
2022-09-26T15:32:34.638Z,57.90
2022-09-26T15:35:03.870Z,57.84
2022-09-26T15:37:36.512Z,57.54
2022-09-26T15:40:20.153Z,57.45
2022-09-26T15:43:01.859Z,57.57
2022-09-26T15:45:33.341Z,57.55
2022-09-26T15:48:04.639Z,57.57
2022-09-26T15:50:31.797Z,57.55
2022-09-26T15:53:04.816Z,57.73
2022-09-26T15:55:37.241Z,57.64
2022-09-26T15:58:07.172Z,57.31
2022-09-26T16:00:37.801Z,57.35
2022-09-26T16:03:18.251Z,55.23
2022-09-26T16:05:48.280Z,54.86
2022-09-26T16:08:27.221Z,56.55
2022-09-26T16:10:59.931Z,57.02
2022-09-26T16:13:35.627Z,57.06
2022-09-26T16:16:08.252Z,57.15
2022-09-26T16:18:40.181Z,56.95
2022-09-26T16:21:22.760Z,57.00
2022-09-26T16:23:52.973Z,57.34
2022-09-26T16:26:44.489Z,57.54
2022-09-26T16:29:11.736Z,57.37
2022-09-26T16:31:47.152Z,56.97
2022-09-26T16:34:19.205Z,56.74
2022-09-26T16:36:46.588Z,56.22
2022-09-26T16:39:24.256Z,56.20
2022-09-26T16:42:01.752Z,56.06
2022-09-26T16:44:50.274Z,56.66
2022-09-26T16:47:35.669Z,56.76
2022-09-26T16:50:31.615Z,56.58
2022-09-26T16:52:58.623Z,56.75
2022-09-26T16:55:27.591Z,57.01
2022-09-26T16:58:00.509Z,57.26
2022-09-26T17:00:52.654Z,57.11
2022-09-26T17:03:32.492Z,57.38
2022-09-26T17:06:00.906Z,57.31
2022-09-26T17:08:28.506Z,57.66
2022-09-26T17:10:59.697Z,57.73
2022-09-26T17:13:27.952Z,57.76
2022-09-26T17:15:57.566Z,57.86
2022-09-26T17:18:29.716Z,57.93
2022-09-26T17:20:59.450Z,58.18
2022-09-26T17:23:42.712Z,58.25
2022-09-26T17:26:20.117Z,58.15
2022-09-26T17:28:47.714Z,58.51
2022-09-26T17:31:20.058Z,58.66
2022-09-26T17:33:51.694Z,58.51
2022-09-26T17:36:25.455Z,58.41
2022-09-26T17:38:53.661Z,58.27
2022-09-26T17:41:22.704Z,58.58
2022-09-26T17:43:50.543Z,58.45
2022-09-26T17:46:17.570Z,58.24
2022-09-26T17:48:45.167Z,58.47
2022-09-26T17:51:14.816Z,58.41
2022-09-26T17:53:50.362Z,58.21
2022-09-26T17:56:18.083Z,58.28
2022-09-26T17:58:47.467Z,58.27
2022-09-26T18:01:27.039Z,58.33
2022-09-26T18:04:00.177Z,58.25
2022-09-26T18:06:31.869Z,58.20
2022-09-26T18:09:05.504Z,58.26
2022-09-26T18:11:34.789Z,58.00
2022-09-26T18:14:04.659Z,58.06
2022-09-26T18:16:31.955Z,57.79
2022-09-26T18:19:02.146Z,57.72
2022-09-26T18:21:34.725Z,57.47
2022-09-26T18:24:07.304Z,57.45
2022-09-26T18:26:44.990Z,57.49
2022-09-26T18:29:15.587Z,57.50
2022-09-26T18:31:46.564Z,57.43
2022-09-26T18:34:18.947Z,57.38
2022-09-26T18:36:46.902Z,57.26
2022-09-26T18:39:13.995Z,57.31
2022-09-26T18:41:41.225Z,57.22
2022-09-26T18:44:16.788Z,57.34
2022-09-26T18:46:46.466Z,57.21
2022-09-26T18:49:14.011Z,57.03
2022-09-26T18:51:41.106Z,57.13
2022-09-26T18:54:17.354Z,57.13
2022-09-26T18:57:03.069Z,56.99
2022-09-26T18:59:31.470Z,56.89
2022-09-26T19:02:01.606Z,56.73
2022-09-26T19:04:31.334Z,56.76
2022-09-26T19:07:05.343Z,56.69
2022-09-26T19:09:34.612Z,56.68
2022-09-26T19:12:03.018Z,56.57
2022-09-26T19:14:31.922Z,56.45
2022-09-26T19:16:59.792Z,56.36
2022-09-26T19:19:29.397Z,56.33
2022-09-26T19:22:12.984Z,56.72
2022-09-26T19:24:52.611Z,56.25
2022-09-26T19:27:54.897Z,56.63
2022-09-26T19:30:23.141Z,56.72
2022-09-26T19:32:56.512Z,56.50
2022-09-26T19:35:31.051Z,56.49
2022-09-26T19:38:02.050Z,56.47
2022-09-26T19:40:29.893Z,56.25
2022-09-26T19:42:57.779Z,56.41
2022-09-26T19:45:27.439Z,56.21
2022-09-26T19:47:56.531Z,56.77
2022-09-26T19:50:28.997Z,56.18
2022-09-26T19:53:01.434Z,56.10
2022-09-26T19:55:38.883Z,55.86
2022-09-26T19:58:18.111Z,55.61
2022-09-26T20:00:50.118Z,55.62
2022-09-26T20:03:20.314Z,55.35
2022-09-26T20:05:49.815Z,55.62
2022-09-26T20:08:25.504Z,55.58
2022-09-26T20:10:55.089Z,55.41
2022-09-26T20:13:22.471Z,55.25
2022-09-26T20:15:49.859Z,55.23
2022-09-26T20:18:21.194Z,55.10
2022-09-26T20:20:53.865Z,55.43
2022-09-26T20:23:23.794Z,55.58
2022-09-26T20:25:53.173Z,55.83
2022-09-26T20:28:20.771Z,56.42
2022-09-26T20:30:54.827Z,56.57
2022-09-26T20:33:24.178Z,56.56
2022-09-26T20:36:02.870Z,56.64
2022-09-26T20:38:49.738Z,57.03
2022-09-26T20:41:16.853Z,55.87
2022-09-26T20:43:47.185Z,55.19
2022-09-26T20:46:15.347Z,55.36
2022-09-26T20:48:44.798Z,55.15
2022-09-26T20:51:27.664Z,55.06
2022-09-26T20:53:54.929Z,54.95
2022-09-26T20:56:22.204Z,54.73
2022-09-26T20:58:49.729Z,54.82
2022-09-26T21:01:18.968Z,54.84
2022-09-26T21:03:56.296Z,54.83
2022-09-26T21:06:28.457Z,54.82
2022-09-26T21:08:55.780Z,55.09
2022-09-26T21:11:23.315Z,54.79
2022-09-26T21:13:51.058Z,54.92
2022-09-26T21:16:22.343Z,54.88
2022-09-26T21:18:52.417Z,54.88
2022-09-26T21:21:19.678Z,55.00
2022-09-26T21:23:48.432Z,55.03
2022-09-26T21:26:24.126Z,54.99
2022-09-26T21:28:52.421Z,55.11
2022-09-26T21:31:31.234Z,55.13
2022-09-26T21:34:00.009Z,55.24
2022-09-26T21:36:34.917Z,55.26
2022-09-26T21:39:02.777Z,55.21
2022-09-26T21:41:30.828Z,55.24
2022-09-26T21:44:06.326Z,55.19
2022-09-26T21:46:33.409Z,55.32
2022-09-26T21:49:00.632Z,55.38
2022-09-26T21:51:29.475Z,55.22
2022-09-26T21:54:03.636Z,55.38
2022-09-26T21:56:35.910Z,55.44
2022-09-26T21:59:05.934Z,55.43
2022-09-26T22:01:32.975Z,55.42
2022-09-26T22:04:00.115Z,55.58
2022-09-26T22:06:27.511Z,55.43
2022-09-26T22:08:54.983Z,55.50
2022-09-26T22:11:22.417Z,55.59
2022-09-26T22:13:49.425Z,55.60
2022-09-26T22:16:17.058Z,55.72
2022-09-26T22:18:44.160Z,55.89
2022-09-26T22:21:11.580Z,55.77
2022-09-26T22:23:39.190Z,55.92
2022-09-26T22:26:06.829Z,56.06
2022-09-26T22:28:33.742Z,56.10
2022-09-26T22:31:02.180Z,56.07
2022-09-26T22:33:29.788Z,56.08
2022-09-26T22:35:57.674Z,56.18
2022-09-26T22:38:25.129Z,56.50
2022-09-26T22:41:05.792Z,56.21
2022-09-26T22:43:34.090Z,56.25
2022-09-26T22:46:03.409Z,56.35
2022-09-26T22:48:38.161Z,56.48
2022-09-26T22:51:06.301Z,56.36
2022-09-26T22:53:35.729Z,56.51
2022-09-26T22:56:05.606Z,56.57
2022-09-26T22:58:36.869Z,56.53
2022-09-26T23:01:09.479Z,56.52
2022-09-26T23:03:36.923Z,56.68
2022-09-26T23:06:05.240Z,56.86
2022-09-26T23:08:33.400Z,56.68
2022-09-26T23:11:01.599Z,56.94
2022-09-26T23:13:30.428Z,56.84
2022-09-26T23:16:04.892Z,56.95
2022-09-26T23:18:31.952Z,56.97
2022-09-26T23:20:58.796Z,57.05
2022-09-26T23:23:25.716Z,56.90
2022-09-26T23:25:52.563Z,57.13
2022-09-26T23:28:19.520Z,56.98
2022-09-26T23:30:47.036Z,57.19
2022-09-26T23:33:13.983Z,57.13
2022-09-26T23:35:40.934Z,57.19
2022-09-26T23:38:08.258Z,57.29
2022-09-26T23:40:37.790Z,57.30
2022-09-26T23:43:04.768Z,57.42
2022-09-26T23:45:31.625Z,57.29
2022-09-26T23:47:58.556Z,57.35
2022-09-26T23:50:26.183Z,57.55
2022-09-26T23:52:53.738Z,57.41
2022-09-26T23:55:20.573Z,57.42
2022-09-26T23:57:47.374Z,57.55
